sensor_id;sensor_type;location;lat;lon;timestamp;pressure;altitude;pressure_sealevel;temperature;humidity
22283;BME280;11310;51.528;21.204;2023-08-01T00:00:28;99235.84;;;16.11;100.00
22283;BME280;11310;51.528;21.204;2023-08-01T00:02:57;99244.97;;;16.07;100.00
22283;BME280;11310;51.528;21.204;2023-08-01T00:05:26;99240.53;;;16.08;100.00
22283;BME280;11310;51.528;21.204;2023-08-01T00:07:56;99239.69;;;16.07;100.00
22283;BME280;11310;51.528;21.204;2023-08-01T00:10:25;99241.41;;;16.08;100.00
22283;BME280;11310;51.528;21.204;2023-08-01T00:12:55;99248.88;;;16.03;100.00
22283;BME280;11310;51.528;21.204;2023-08-01T00:15:24;99242.97;;;16.00;100.00
22283;BME280;11310;51.528;21.204;2023-08-01T00:17:54;99234.44;;;15.96;100.00
22283;BME280;11310;51.528;21.204;2023-08-01T00:20:23;99237.06;;;15.96;100.00
22283;BME280;11310;51.528;21.204;2023-08-01T00:22:52;99238.16;;;15.94;100.00
22283;BME280;11310;51.528;21.204;2023-08-01T00:25:21;99227.81;;;15.91;100.00
22283;BME280;11310;51.528;21.204;2023-08-01T00:27:50;99227.34;;;15.97;100.00
22283;BME280;11310;51.528;21.204;2023-08-01T00:30:20;99232.03;;;15.93;100.00
22283;BME280;11310;51.528;21.204;2023-08-01T00:32:49;99230.59;;;15.89;100.00
22283;BME280;11310;51.528;21.204;2023-08-01T00:35:18;99226.25;;;15.88;100.00
22283;BME280;11310;51.528;21.204;2023-08-01T00:37:48;99225.56;;;15.86;100.00
22283;BME280;11310;51.528;21.204;2023-08-01T00:40:17;99212.69;;;15.82;100.00
22283;BME280;11310;51.528;21.204;2023-08-01T00:42:47;99216.41;;;15.79;100.00
22283;BME280;11310;51.528;21.204;2023-08-01T00:45:16;99211.41;;;15.76;100.00
22283;BME280;11310;51.528;21.204;2023-08-01T00:47:45;99203.59;;;15.75;100.00
22283;BME280;11310;51.528;21.204;2023-08-01T00:50:14;99213.31;;;15.74;100.00
22283;BME280;11310;51.528;21.204;2023-08-01T00:52:42;99207.19;;;15.74;100.00
22283;BME280;11310;51.528;21.204;2023-08-01T00:55:11;99204.66;;;15.72;100.00
22283;BME280;11310;51.528;21.204;2023-08-01T00:57:40;99202.84;;;15.73;100.00
22283;BME280;11310;51.528;21.204;2023-08-01T01:00:12;99202.13;;;15.71;100.00
22283;BME280;11310;51.528;21.204;2023-08-01T01:02:40;99203.09;;;15.70;100.00
22283;BME280;11310;51.528;21.204;2023-08-01T01:05:09;99190.00;;;15.68;100.00
22283;BME280;11310;51.528;21.204;2023-08-01T01:07:39;99186.63;;;15.66;100.00
22283;BME280;11310;51.528;21.204;2023-08-01T01:10:08;99185.81;;;15.66;100.00
22283;BME280;11310;51.528;21.204;2023-08-01T01:12:36;99182.81;;;15.59;100.00
22283;BME280;11310;51.528;21.204;2023-08-01T01:15:06;99171.03;;;15.52;100.00
22283;BME280;11310;51.528;21.204;2023-08-01T01:17:36;99177.41;;;15.50;100.00
22283;BME280;11310;51.528;21.204;2023-08-01T01:20:05;99178.59;;;15.46;100.00
22283;BME280;11310;51.528;21.204;2023-08-01T01:22:36;99172.72;;;15.42;100.00
22283;BME280;11310;51.528;21.204;2023-08-01T01:25:07;99166.00;;;15.38;100.00
22283;BME280;11310;51.528;21.204;2023-08-01T01:27:37;99167.06;;;15.36;100.00
22283;BME280;11310;51.528;21.204;2023-08-01T01:30:07;99160.13;;;15.35;100.00
22283;BME280;11310;51.528;21.204;2023-08-01T01:32:37;99160.13;;;15.35;100.00
22283;BME280;11310;51.528;21.204;2023-08-01T01:35:06;99155.69;;;15.35;100.00
22283;BME280;11310;51.528;21.204;2023-08-01T01:37:36;99160.19;;;15.33;100.00
22283;BME280;11310;51.528;21.204;2023-08-01T01:40:07;99148.94;;;15.31;100.00
22283;BME280;11310;51.528;21.204;2023-08-01T01:42:36;99158.06;;;15.27;100.00
22283;BME280;11310;51.528;21.204;2023-08-01T01:45:05;99147.38;;;15.29;100.00
22283;BME280;11310;51.528;21.204;2023-08-01T01:47:34;99140.53;;;15.26;100.00
22283;BME280;11310;51.528;21.204;2023-08-01T01:50:03;99145.06;;;15.24;100.00
22283;BME280;11310;51.528;21.204;2023-08-01T01:52:32;99144.38;;;15.22;100.00
22283;BME280;11310;51.528;21.204;2023-08-01T01:55:02;99141.72;;;15.22;100.00
22283;BME280;11310;51.528;21.204;2023-08-01T01:57:32;99133.78;;;15.22;100.00
22283;BME280;11310;51.528;21.204;2023-08-01T02:00:03;99126.09;;;15.19;100.00
22283;BME280;11310;51.528;21.204;2023-08-01T02:02:38;99121.56;;;15.21;100.00
22283;BME280;11310;51.528;21.204;2023-08-01T02:05:07;99118.06;;;15.21;100.00
22283;BME280;11310;51.528;21.204;2023-08-01T02:07:36;99112.88;;;15.19;100.00
22283;BME280;11310;51.528;21.204;2023-08-01T02:10:07;99095.47;;;15.17;100.00
22283;BME280;11310;51.528;21.204;2023-08-01T02:12:36;99106.53;;;15.22;100.00
22283;BME280;11310;51.528;21.204;2023-08-01T02:15:05;99101.00;;;15.25;100.00
22283;BME280;11310;51.528;21.204;2023-08-01T02:17:34;99107.97;;;15.26;100.00
22283;BME280;11310;51.528;21.204;2023-08-01T02:20:03;99106.88;;;15.28;100.00
22283;BME280;11310;51.528;21.204;2023-08-01T02:22:32;99096.06;;;15.31;100.00
22283;BME280;11310;51.528;21.204;2023-08-01T02:25:01;99092.25;;;15.35;100.00
22283;BME280;11310;51.528;21.204;2023-08-01T02:27:30;99093.44;;;15.42;100.00
22283;BME280;11310;51.528;21.204;2023-08-01T02:29:59;99090.03;;;15.51;100.00
22283;BME280;11310;51.528;21.204;2023-08-01T02:32:28;99081.38;;;15.60;100.00
22283;BME280;11310;51.528;21.204;2023-08-01T02:34:58;99071.97;;;15.67;100.00
22283;BME280;11310;51.528;21.204;2023-08-01T02:37:27;99072.19;;;15.75;100.00
22283;BME280;11310;51.528;21.204;2023-08-01T02:39:56;99074.34;;;15.81;100.00
22283;BME280;11310;51.528;21.204;2023-08-01T02:42:26;99064.09;;;15.88;100.00
22283;BME280;11310;51.528;21.204;2023-08-01T02:44:56;99068.00;;;15.93;100.00
22283;BME280;11310;51.528;21.204;2023-08-01T02:47:25;99065.00;;;15.98;100.00
22283;BME280;11310;51.528;21.204;2023-08-01T02:49:53;99062.81;;;16.03;100.00
22283;BME280;11310;51.528;21.204;2023-08-01T02:52:22;99055.44;;;16.06;100.00
22283;BME280;11310;51.528;21.204;2023-08-01T02:54:50;99059.28;;;16.13;100.00
22283;BME280;11310;51.528;21.204;2023-08-01T02:57:19;99059.84;;;16.17;100.00
22283;BME280;11310;51.528;21.204;2023-08-01T02:59:48;99054.03;;;16.23;100.00
22283;BME280;11310;51.528;21.204;2023-08-01T03:02:18;99048.38;;;16.27;100.00
22283;BME280;11310;51.528;21.204;2023-08-01T03:04:47;99034.03;;;16.30;100.00
22283;BME280;11310;51.528;21.204;2023-08-01T03:07:17;99044.38;;;16.33;100.00
22283;BME280;11310;51.528;21.204;2023-08-01T03:09:46;99035.16;;;16.37;100.00
22283;BME280;11310;51.528;21.204;2023-08-01T03:12:15;99038.66;;;16.37;100.00
22283;BME280;11310;51.528;21.204;2023-08-01T03:14:43;99036.56;;;16.31;100.00
22283;BME280;11310;51.528;21.204;2023-08-01T03:17:14;99036.28;;;16.34;100.00
22283;BME280;11310;51.528;21.204;2023-08-01T03:19:45;99026.28;;;16.38;100.00
22283;BME280;11310;51.528;21.204;2023-08-01T03:22:13;99030.22;;;16.43;100.00
22283;BME280;11310;51.528;21.204;2023-08-01T03:24:42;99020.34;;;16.45;100.00
22283;BME280;11310;51.528;21.204;2023-08-01T03:27:10;99022.59;;;16.50;100.00
22283;BME280;11310;51.528;21.204;2023-08-01T03:29:39;99024.88;;;16.54;100.00
22283;BME280;11310;51.528;21.204;2023-08-01T03:32:08;99024.06;;;16.63;100.00
22283;BME280;11310;51.528;21.204;2023-08-01T03:34:37;99022.56;;;16.70;100.00
22283;BME280;11310;51.528;21.204;2023-08-01T03:37:10;99025.63;;;16.75;100.00
22283;BME280;11310;51.528;21.204;2023-08-01T03:39:38;99023.72;;;16.77;100.00
22283;BME280;11310;51.528;21.204;2023-08-01T03:42:07;99033.06;;;16.81;100.00
22283;BME280;11310;51.528;21.204;2023-08-01T03:44:36;99019.66;;;16.83;100.00
22283;BME280;11310;51.528;21.204;2023-08-01T03:47:05;99017.63;;;16.86;100.00
22283;BME280;11310;51.528;21.204;2023-08-01T03:49:34;99024.31;;;16.90;100.00
22283;BME280;11310;51.528;21.204;2023-08-01T03:52:04;99014.16;;;16.95;100.00
22283;BME280;11310;51.528;21.204;2023-08-01T03:54:35;99012.06;;;16.99;100.00
22283;BME280;11310;51.528;21.204;2023-08-01T03:57:04;99011.81;;;17.02;100.00
22283;BME280;11310;51.528;21.204;2023-08-01T03:59:34;99013.66;;;17.11;100.00
22283;BME280;11310;51.528;21.204;2023-08-01T04:02:04;99017.53;;;17.16;100.00
22283;BME280;11310;51.528;21.204;2023-08-01T04:04:33;99016.03;;;17.23;100.00
22283;BME280;11310;51.528;21.204;2023-08-01T04:07:01;99014.50;;;17.30;100.00
22283;BME280;11310;51.528;21.204;2023-08-01T04:09:30;99009.63;;;17.35;100.00
22283;BME280;11310;51.528;21.204;2023-08-01T04:12:00;99010.09;;;17.40;100.00
22283;BME280;11310;51.528;21.204;2023-08-01T04:14:29;99010.53;;;17.45;100.00
22283;BME280;11310;51.528;21.204;2023-08-01T04:16:58;99003.25;;;17.47;100.00
22283;BME280;11310;51.528;21.204;2023-08-01T04:19:30;99004.66;;;17.51;100.00
22283;BME280;11310;51.528;21.204;2023-08-01T04:21:58;99004.53;;;17.53;100.00
22283;BME280;11310;51.528;21.204;2023-08-01T04:24:27;98999.91;;;17.55;100.00
22283;BME280;11310;51.528;21.204;2023-08-01T04:26:58;99000.75;;;17.55;100.00
22283;BME280;11310;51.528;21.204;2023-08-01T04:29:28;99000.47;;;17.58;100.00
22283;BME280;11310;51.528;21.204;2023-08-01T04:31:58;98994.88;;;17.61;100.00
22283;BME280;11310;51.528;21.204;2023-08-01T04:34:27;98986.34;;;17.67;100.00
22283;BME280;11310;51.528;21.204;2023-08-01T04:36:56;98989.47;;;17.72;100.00
22283;BME280;11310;51.528;21.204;2023-08-01T04:39:25;98989.16;;;17.75;100.00
22283;BME280;11310;51.528;21.204;2023-08-01T04:41:54;98989.88;;;17.77;100.00
22283;BME280;11310;51.528;21.204;2023-08-01T04:44:23;98982.59;;;17.79;100.00
22283;BME280;11310;51.528;21.204;2023-08-01T04:46:56;98983.28;;;17.81;100.00
22283;BME280;11310;51.528;21.204;2023-08-01T04:49:25;98978.56;;;17.85;100.00
22283;BME280;11310;51.528;21.204;2023-08-01T04:51:55;98982.75;;;17.87;100.00
22283;BME280;11310;51.528;21.204;2023-08-01T04:54:23;98975.03;;;17.94;100.00
22283;BME280;11310;51.528;21.204;2023-08-01T04:56:52;98970.00;;;18.00;100.00
22283;BME280;11310;51.528;21.204;2023-08-01T04:59:21;98966.63;;;18.08;100.00
22283;BME280;11310;51.528;21.204;2023-08-01T05:01:50;98973.03;;;18.15;100.00
22283;BME280;11310;51.528;21.204;2023-08-01T05:04:19;98959.88;;;18.23;100.00
22283;BME280;11310;51.528;21.204;2023-08-01T05:06:48;98967.84;;;18.32;100.00
22283;BME280;11310;51.528;21.204;2023-08-01T05:09:17;98966.81;;;18.43;100.00
22283;BME280;11310;51.528;21.204;2023-08-01T05:11:46;98962.75;;;18.58;100.00
22283;BME280;11310;51.528;21.204;2023-08-01T05:14:15;98964.44;;;18.76;100.00
22283;BME280;11310;51.528;21.204;2023-08-01T05:16:43;98975.81;;;18.96;100.00
22283;BME280;11310;51.528;21.204;2023-08-01T05:19:12;98971.53;;;19.12;100.00
22283;BME280;11310;51.528;21.204;2023-08-01T05:21:42;98965.72;;;19.26;100.00
22283;BME280;11310;51.528;21.204;2023-08-01T05:24:11;98969.47;;;19.33;100.00
22283;BME280;11310;51.528;21.204;2023-08-01T05:26:40;98972.78;;;19.35;100.00
22283;BME280;11310;51.528;21.204;2023-08-01T05:29:09;98972.66;;;19.37;100.00
22283;BME280;11310;51.528;21.204;2023-08-01T05:31:38;98970.84;;;19.37;100.00
22283;BME280;11310;51.528;21.204;2023-08-01T05:34:07;98962.84;;;19.37;100.00
22283;BME280;11310;51.528;21.204;2023-08-01T05:36:37;98967.47;;;19.35;100.00
22283;BME280;11310;51.528;21.204;2023-08-01T05:39:08;98954.41;;;19.42;100.00
22283;BME280;11310;51.528;21.204;2023-08-01T05:41:38;98952.34;;;19.53;100.00
22283;BME280;11310;51.528;21.204;2023-08-01T05:44:08;98945.81;;;19.65;100.00
22283;BME280;11310;51.528;21.204;2023-08-01T05:46:38;98944.19;;;19.72;100.00
22283;BME280;11310;51.528;21.204;2023-08-01T05:49:07;98936.34;;;19.88;100.00
22283;BME280;11310;51.528;21.204;2023-08-01T05:51:36;98937.16;;;20.06;100.00
22283;BME280;11310;51.528;21.204;2023-08-01T05:54:05;98944.81;;;20.27;100.00
22283;BME280;11310;51.528;21.204;2023-08-01T05:56:35;98939.41;;;20.44;98.95
22283;BME280;11310;51.528;21.204;2023-08-01T05:59:04;98942.16;;;20.60;97.92
22283;BME280;11310;51.528;21.204;2023-08-01T06:01:33;98934.56;;;20.81;96.46
22283;BME280;11310;51.528;21.204;2023-08-01T06:04:02;98935.47;;;20.98;95.82
22283;BME280;11310;51.528;21.204;2023-08-01T06:06:32;98931.00;;;21.15;95.87
22283;BME280;11310;51.528;21.204;2023-08-01T06:09:01;98937.75;;;21.35;95.72
22283;BME280;11310;51.528;21.204;2023-08-01T06:11:30;98934.75;;;21.54;94.52
22283;BME280;11310;51.528;21.204;2023-08-01T06:14:03;98947.31;;;21.77;93.95
22283;BME280;11310;51.528;21.204;2023-08-01T06:16:32;98931.28;;;21.93;93.54
22283;BME280;11310;51.528;21.204;2023-08-01T06:19:00;98929.25;;;22.03;93.51
22283;BME280;11310;51.528;21.204;2023-08-01T06:21:30;98925.94;;;22.09;93.29
22283;BME280;11310;51.528;21.204;2023-08-01T06:23:58;98918.03;;;22.16;92.89
22283;BME280;11310;51.528;21.204;2023-08-01T06:26:27;98927.84;;;22.31;91.83
22283;BME280;11310;51.528;21.204;2023-08-01T06:28:56;98917.31;;;22.54;91.26
22283;BME280;11310;51.528;21.204;2023-08-01T06:31:26;98918.09;;;22.70;91.48
22283;BME280;11310;51.528;21.204;2023-08-01T06:33:55;98903.97;;;22.84;90.79
22283;BME280;11310;51.528;21.204;2023-08-01T06:36:24;98905.91;;;22.98;90.00
22283;BME280;11310;51.528;21.204;2023-08-01T06:38:53;98917.34;;;23.15;90.07
22283;BME280;11310;51.528;21.204;2023-08-01T06:41:22;98909.66;;;23.20;89.80
22283;BME280;11310;51.528;21.204;2023-08-01T06:43:51;98899.63;;;23.22;89.52
22283;BME280;11310;51.528;21.204;2023-08-01T06:46:20;98896.25;;;23.20;89.91
22283;BME280;11310;51.528;21.204;2023-08-01T06:48:50;98897.41;;;23.25;90.70
22283;BME280;11310;51.528;21.204;2023-08-01T06:51:18;98890.03;;;23.27;90.41
22283;BME280;11310;51.528;21.204;2023-08-01T06:53:47;98888.22;;;23.20;90.38
22283;BME280;11310;51.528;21.204;2023-08-01T06:56:16;98892.97;;;23.10;89.74
22283;BME280;11310;51.528;21.204;2023-08-01T06:58:47;98892.84;;;23.03;90.00
22283;BME280;11310;51.528;21.204;2023-08-01T07:01:15;98888.38;;;22.96;90.05
22283;BME280;11310;51.528;21.204;2023-08-01T07:03:44;98892.53;;;22.98;90.99
22283;BME280;11310;51.528;21.204;2023-08-01T07:06:15;98894.00;;;23.01;91.11
22283;BME280;11310;51.528;21.204;2023-08-01T07:08:43;98886.13;;;23.07;91.03
22283;BME280;11310;51.528;21.204;2023-08-01T07:11:12;98883.03;;;23.18;90.49
22283;BME280;11310;51.528;21.204;2023-08-01T07:13:41;98880.63;;;23.31;90.97
22283;BME280;11310;51.528;21.204;2023-08-01T07:16:09;98882.53;;;23.45;90.38
22283;BME280;11310;51.528;21.204;2023-08-01T07:18:38;98878.88;;;23.61;90.09
22283;BME280;11310;51.528;21.204;2023-08-01T07:21:07;98881.50;;;23.69;89.67
22283;BME280;11310;51.528;21.204;2023-08-01T07:23:37;98880.13;;;23.73;89.45
22283;BME280;11310;51.528;21.204;2023-08-01T07:26:06;98875.78;;;23.72;89.33
22283;BME280;11310;51.528;21.204;2023-08-01T07:28:34;98876.31;;;23.67;89.06
22283;BME280;11310;51.528;21.204;2023-08-01T07:31:05;98877.50;;;23.65;89.34
22283;BME280;11310;51.528;21.204;2023-08-01T07:33:36;98873.47;;;23.69;90.38
22283;BME280;11310;51.528;21.204;2023-08-01T07:36:05;98872.72;;;23.75;91.01
22283;BME280;11310;51.528;21.204;2023-08-01T07:38:34;98861.00;;;23.76;90.15
22283;BME280;11310;51.528;21.204;2023-08-01T07:41:05;98863.69;;;23.76;90.62
22283;BME280;11310;51.528;21.204;2023-08-01T07:43:34;98867.66;;;23.80;91.85
22283;BME280;11310;51.528;21.204;2023-08-01T07:46:03;98862.59;;;23.85;91.76
22283;BME280;11310;51.528;21.204;2023-08-01T07:48:31;98856.53;;;23.91;91.09
22283;BME280;11310;51.528;21.204;2023-08-01T07:51:00;98854.69;;;23.91;90.58
22283;BME280;11310;51.528;21.204;2023-08-01T07:53:30;98855.22;;;23.87;90.69
22283;BME280;11310;51.528;21.204;2023-08-01T07:55:59;98850.66;;;23.87;89.63
22283;BME280;11310;51.528;21.204;2023-08-01T07:58:30;98847.81;;;23.89;89.28
22283;BME280;11310;51.528;21.204;2023-08-01T08:01:02;98837.94;;;23.89;88.98
22283;BME280;11310;51.528;21.204;2023-08-01T08:03:31;98839.72;;;23.97;89.12
22283;BME280;11310;51.528;21.204;2023-08-01T08:06:00;98839.81;;;24.03;89.43
22283;BME280;11310;51.528;21.204;2023-08-01T08:08:31;98841.59;;;24.11;89.56
22283;BME280;11310;51.528;21.204;2023-08-01T08:11:00;98828.72;;;24.21;90.33
22283;BME280;11310;51.528;21.204;2023-08-01T08:13:30;98834.19;;;24.27;89.84
22283;BME280;11310;51.528;21.204;2023-08-01T08:15:59;98839.00;;;24.32;89.21
22283;BME280;11310;51.528;21.204;2023-08-01T08:18:28;98834.00;;;24.29;88.94
22283;BME280;11310;51.528;21.204;2023-08-01T08:20:57;98841.78;;;24.24;89.55
22283;BME280;11310;51.528;21.204;2023-08-01T08:23:25;98829.13;;;24.18;90.41
22283;BME280;11310;51.528;21.204;2023-08-01T08:25:54;98841.31;;;24.06;90.83
22283;BME280;11310;51.528;21.204;2023-08-01T08:28:28;98827.53;;;23.94;89.88
22283;BME280;11310;51.528;21.204;2023-08-01T08:30:59;98827.97;;;23.83;90.27
22283;BME280;11310;51.528;21.204;2023-08-01T08:33:29;98829.88;;;23.75;90.79
22283;BME280;11310;51.528;21.204;2023-08-01T08:35:58;98830.78;;;23.67;91.08
22283;BME280;11310;51.528;21.204;2023-08-01T08:38:27;98831.88;;;23.58;91.30
22283;BME280;11310;51.528;21.204;2023-08-01T08:41:05;98830.75;;;23.53;92.54
22283;BME280;11310;51.528;21.204;2023-08-01T08:43:35;98827.78;;;23.48;92.54
22283;BME280;11310;51.528;21.204;2023-08-01T08:46:05;98828.97;;;23.45;93.76
22283;BME280;11310;51.528;21.204;2023-08-01T08:48:39;98820.13;;;23.45;92.75
22283;BME280;11310;51.528;21.204;2023-08-01T08:51:09;98822.81;;;23.45;93.23
22283;BME280;11310;51.528;21.204;2023-08-01T08:53:40;98819.47;;;23.43;94.70
22283;BME280;11310;51.528;21.204;2023-08-01T08:56:09;98825.09;;;23.48;94.56
22283;BME280;11310;51.528;21.204;2023-08-01T08:58:40;98816.72;;;23.51;94.56
22283;BME280;11310;51.528;21.204;2023-08-01T09:01:10;98827.88;;;23.54;94.71
22283;BME280;11310;51.528;21.204;2023-08-01T09:03:39;98826.34;;;23.60;94.28
22283;BME280;11310;51.528;21.204;2023-08-01T09:06:10;98820.06;;;23.67;93.38
22283;BME280;11310;51.528;21.204;2023-08-01T09:08:44;98823.69;;;23.74;94.47
22283;BME280;11310;51.528;21.204;2023-08-01T09:11:17;98813.34;;;23.71;92.95
22283;BME280;11310;51.528;21.204;2023-08-01T09:13:47;98815.84;;;23.73;92.30
22283;BME280;11310;51.528;21.204;2023-08-01T09:16:17;98808.44;;;23.75;91.58
22283;BME280;11310;51.528;21.204;2023-08-01T09:18:48;98812.50;;;23.71;91.28
22283;BME280;11310;51.528;21.204;2023-08-01T09:21:20;98810.38;;;23.66;91.74
22283;BME280;11310;51.528;21.204;2023-08-01T09:23:48;98814.31;;;23.56;88.14
22283;BME280;11310;51.528;21.204;2023-08-01T09:26:20;98812.00;;;23.53;90.06
22283;BME280;11310;51.528;21.204;2023-08-01T09:28:57;98817.06;;;23.48;84.04
22283;BME280;11310;51.528;21.204;2023-08-01T09:31:28;98815.75;;;23.44;89.64
22283;BME280;11310;51.528;21.204;2023-08-01T09:33:58;98816.03;;;23.34;89.45
22283;BME280;11310;51.528;21.204;2023-08-01T09:36:27;98818.88;;;23.33;89.89
22283;BME280;11310;51.528;21.204;2023-08-01T09:38:59;98816.66;;;23.36;90.95
22283;BME280;11310;51.528;21.204;2023-08-01T09:41:28;98812.16;;;23.37;90.57
22283;BME280;11310;51.528;21.204;2023-08-01T09:43:58;98806.47;;;23.40;89.18
22283;BME280;11310;51.528;21.204;2023-08-01T09:46:28;98804.88;;;23.45;90.12
22283;BME280;11310;51.528;21.204;2023-08-01T09:49:06;98803.34;;;23.51;88.41
22283;BME280;11310;51.528;21.204;2023-08-01T09:51:46;98801.50;;;23.66;88.63
22283;BME280;11310;51.528;21.204;2023-08-01T09:54:16;98792.47;;;23.81;88.85
22283;BME280;11310;51.528;21.204;2023-08-01T09:56:46;98793.94;;;23.84;87.22
22283;BME280;11310;51.528;21.204;2023-08-01T09:59:19;98790.25;;;23.85;88.14
22283;BME280;11310;51.528;21.204;2023-08-01T10:01:50;98788.97;;;23.81;89.77
22283;BME280;11310;51.528;21.204;2023-08-01T10:04:21;98788.31;;;23.79;91.98
22283;BME280;11310;51.528;21.204;2023-08-01T10:06:54;98786.09;;;23.68;92.26
22283;BME280;11310;51.528;21.204;2023-08-01T10:09:25;98786.81;;;23.62;90.70
22283;BME280;11310;51.528;21.204;2023-08-01T10:11:57;98789.19;;;23.57;92.34
22283;BME280;11310;51.528;21.204;2023-08-01T10:14:26;98788.28;;;23.50;93.41
22283;BME280;11310;51.528;21.204;2023-08-01T10:16:57;98781.34;;;23.41;93.39
22283;BME280;11310;51.528;21.204;2023-08-01T10:19:26;98784.72;;;23.35;95.18
22283;BME280;11310;51.528;21.204;2023-08-01T10:21:55;98777.44;;;23.29;96.31
22283;BME280;11310;51.528;21.204;2023-08-01T10:24:26;98784.16;;;23.25;98.52
22283;BME280;11310;51.528;21.204;2023-08-01T10:26:56;98786.53;;;23.20;99.11
22283;BME280;11310;51.528;21.204;2023-08-01T10:29:34;98780.88;;;23.15;100.00
22283;BME280;11310;51.528;21.204;2023-08-01T10:32:06;98781.75;;;23.07;100.00
22283;BME280;11310;51.528;21.204;2023-08-01T10:34:35;98784.97;;;23.03;100.00
22283;BME280;11310;51.528;21.204;2023-08-01T10:37:04;98780.16;;;22.98;100.00
22283;BME280;11310;51.528;21.204;2023-08-01T10:39:33;98778.38;;;22.91;100.00
22283;BME280;11310;51.528;21.204;2023-08-01T10:42:03;98768.75;;;22.82;100.00
22283;BME280;11310;51.528;21.204;2023-08-01T10:44:32;98771.47;;;22.74;100.00
22283;BME280;11310;51.528;21.204;2023-08-01T10:47:05;98775.69;;;22.68;100.00
22283;BME280;11310;51.528;21.204;2023-08-01T10:49:37;98773.09;;;22.60;100.00
22283;BME280;11310;51.528;21.204;2023-08-01T10:52:16;98768.41;;;22.54;100.00
22283;BME280;11310;51.528;21.204;2023-08-01T10:54:47;98774.31;;;22.50;100.00
22283;BME280;11310;51.528;21.204;2023-08-01T10:57:16;98765.81;;;22.46;100.00
22283;BME280;11310;51.528;21.204;2023-08-01T10:59:46;98759.28;;;22.41;100.00
22283;BME280;11310;51.528;21.204;2023-08-01T11:02:22;98766.16;;;22.35;100.00
22283;BME280;11310;51.528;21.204;2023-08-01T11:04:56;98770.56;;;22.28;100.00
22283;BME280;11310;51.528;21.204;2023-08-01T11:07:26;98767.06;;;22.20;100.00
22283;BME280;11310;51.528;21.204;2023-08-01T11:10:06;98761.78;;;22.12;100.00
22283;BME280;11310;51.528;21.204;2023-08-01T11:12:37;98772.66;;;22.02;100.00
22283;BME280;11310;51.528;21.204;2023-08-01T11:15:07;98778.38;;;21.91;100.00
22283;BME280;11310;51.528;21.204;2023-08-01T11:17:38;98765.38;;;21.80;100.00
22283;BME280;11310;51.528;21.204;2023-08-01T11:20:09;98767.09;;;21.73;100.00
22283;BME280;11310;51.528;21.204;2023-08-01T11:22:50;98759.72;;;21.67;100.00
22283;BME280;11310;51.528;21.204;2023-08-01T11:25:20;98756.56;;;21.64;100.00
22283;BME280;11310;51.528;21.204;2023-08-01T11:27:49;98767.56;;;21.61;100.00
22283;BME280;11310;51.528;21.204;2023-08-01T11:30:18;98757.41;;;21.64;100.00
22283;BME280;11310;51.528;21.204;2023-08-01T11:32:48;98761.91;;;21.64;100.00
22283;BME280;11310;51.528;21.204;2023-08-01T11:35:17;98762.22;;;21.69;100.00
22283;BME280;11310;51.528;21.204;2023-08-01T11:37:46;98752.72;;;21.74;100.00
22283;BME280;11310;51.528;21.204;2023-08-01T11:40:16;98748.34;;;21.81;100.00
22283;BME280;11310;51.528;21.204;2023-08-01T11:42:48;98739.84;;;21.86;100.00
22283;BME280;11310;51.528;21.204;2023-08-01T11:45:20;98742.19;;;21.89;100.00
22283;BME280;11310;51.528;21.204;2023-08-01T11:47:51;98740.81;;;21.93;100.00
22283;BME280;11310;51.528;21.204;2023-08-01T11:50:24;98728.78;;;21.97;100.00
22283;BME280;11310;51.528;21.204;2023-08-01T11:52:54;98730.41;;;22.06;100.00
22283;BME280;11310;51.528;21.204;2023-08-01T11:55:26;98729.34;;;22.15;100.00
22283;BME280;11310;51.528;21.204;2023-08-01T11:57:56;98726.31;;;22.26;100.00
22283;BME280;11310;51.528;21.204;2023-08-01T12:00:28;98718.72;;;22.37;100.00
22283;BME280;11310;51.528;21.204;2023-08-01T12:03:06;98721.84;;;22.49;100.00
22283;BME280;11310;51.528;21.204;2023-08-01T12:05:40;98717.91;;;22.59;100.00
22283;BME280;11310;51.528;21.204;2023-08-01T12:08:14;98713.19;;;22.69;100.00
22283;BME280;11310;51.528;21.204;2023-08-01T12:10:45;98709.47;;;22.93;100.00
22283;BME280;11310;51.528;21.204;2023-08-01T12:13:20;98710.94;;;23.18;100.00
22283;BME280;11310;51.528;21.204;2023-08-01T12:15:52;98707.47;;;23.46;100.00
22283;BME280;11310;51.528;21.204;2023-08-01T12:18:23;98709.06;;;23.70;100.00
22283;BME280;11310;51.528;21.204;2023-08-01T12:20:55;98707.19;;;23.85;100.00
22283;BME280;11310;51.528;21.204;2023-08-01T12:23:24;98708.50;;;23.89;100.00
22283;BME280;11310;51.528;21.204;2023-08-01T12:25:53;98700.47;;;23.89;100.00
22283;BME280;11310;51.528;21.204;2023-08-01T12:28:22;98698.53;;;23.83;100.00
22283;BME280;11310;51.528;21.204;2023-08-01T12:30:51;98698.63;;;23.75;100.00
22283;BME280;11310;51.528;21.204;2023-08-01T12:33:19;98692.19;;;23.69;100.00
22283;BME280;11310;51.528;21.204;2023-08-01T12:35:54;98689.69;;;23.68;100.00
22283;BME280;11310;51.528;21.204;2023-08-01T12:38:23;98690.13;;;23.71;100.00
22283;BME280;11310;51.528;21.204;2023-08-01T12:40:53;98690.97;;;23.72;100.00
22283;BME280;11310;51.528;21.204;2023-08-01T12:43:22;98684.97;;;23.70;100.00
22283;BME280;11310;51.528;21.204;2023-08-01T12:45:51;98680.63;;;23.69;100.00
22283;BME280;11310;51.528;21.204;2023-08-01T12:48:22;98677.50;;;23.65;100.00
22283;BME280;11310;51.528;21.204;2023-08-01T12:50:51;98675.81;;;23.64;100.00
22283;BME280;11310;51.528;21.204;2023-08-01T12:53:22;98672.03;;;23.59;100.00
22283;BME280;11310;51.528;21.204;2023-08-01T12:55:56;98672.31;;;23.49;100.00